Malaga, Spain
Current Conditions -  °F | °C
As of 4:00 PM on Wednesday 22 Oct 2014 (Local Time) from LEMG Reporting Station
Clear Clear  
Wind Chill: 91°   Ceiling: Unl
Heat Index: 91°   Visibility: 6mi
Dew Point: 46°   Wind: 14mph
Humidity: 21%   Direction: 330°NNW
Pressure: 30.09"   Gusts: NA
Location:  36.72°N, 4.42°W
Report Text: LEMG 221400Z 33012KT 300V020 CAVOK 33/08 Q1019 NOSIG
Loading
Personal Weather Stations






























Interactive Weather Map New forecast layout! Learn more

10-Day Weather Forecast

Advertisements
Track Severe Weather on mobile